sensor_id;sensor_type;location;lat;lon;timestamp;pressure;altitude;pressure_sealevel;temperature;humidity
71149;BME280;59072;42.144;25.200;2023-03-17T00:01:09;100330.47;;;5.41;84.58
71149;BME280;59072;42.144;25.200;2023-03-17T00:03:37;100307.09;;;5.30;82.83
71149;BME280;59072;42.144;25.200;2023-03-17T00:06:06;100331.81;;;5.37;82.49
71149;BME280;59072;42.144;25.200;2023-03-17T00:08:39;100332.13;;;5.42;82.90
71149;BME280;59072;42.144;25.200;2023-03-17T00:11:08;100329.09;;;5.30;83.59
71149;BME280;59072;42.144;25.200;2023-03-17T00:13:34;100336.06;;;5.46;82.59
71149;BME280;59072;42.144;25.200;2023-03-17T00:16:05;100336.06;;;5.46;81.87
71149;BME280;59072;42.144;25.200;2023-03-17T00:18:34;100328.19;;;5.38;83.43
71149;BME280;59072;42.144;25.200;2023-03-17T00:21:00;100314.41;;;5.28;82.81
71149;BME280;59072;42.144;25.200;2023-03-17T00:23:25;100340.63;;;5.52;81.74
71149;BME280;59072;42.144;25.200;2023-03-17T00:25:51;100337.34;;;5.50;81.85
71149;BME280;59072;42.144;25.200;2023-03-17T00:28:20;100331.25;;;5.50;81.11
71149;BME280;59072;42.144;25.200;2023-03-17T00:30:48;100341.34;;;5.46;82.33
71149;BME280;59072;42.144;25.200;2023-03-17T00:33:15;100331.97;;;5.43;81.29
71149;BME280;59072;42.144;25.200;2023-03-17T00:35:42;100338.53;;;5.48;81.99
71149;BME280;59072;42.144;25.200;2023-03-17T00:38:13;100330.84;;;5.38;82.28
71149;BME280;59072;42.144;25.200;2023-03-17T00:40:39;100330.84;;;5.38;81.92
71149;BME280;59072;42.144;25.200;2023-03-17T00:43:05;100336.09;;;5.61;81.03
71149;BME280;59072;42.144;25.200;2023-03-17T00:45:32;100331.28;;;5.64;82.03
71149;BME280;59072;42.144;25.200;2023-03-17T00:47:58;100338.88;;;5.82;80.71
71149;BME280;59072;42.144;25.200;2023-03-17T00:50:27;100336.66;;;5.71;80.88
71149;BME280;59072;42.144;25.200;2023-03-17T00:52:55;100341.59;;;5.74;81.17
71149;BME280;59072;42.144;25.200;2023-03-17T00:55:23;100351.50;;;5.57;80.81
71149;BME280;59072;42.144;25.200;2023-03-17T00:57:49;100341.94;;;5.56;81.24
71149;BME280;59072;42.144;25.200;2023-03-17T01:00:25;100357.19;;;5.69;80.18
71149;BME280;59072;42.144;25.200;2023-03-17T01:02:52;100338.56;;;5.62;80.25
71149;BME280;59072;42.144;25.200;2023-03-17T01:05:20;100345.78;;;5.69;80.39
71149;BME280;59072;42.144;25.200;2023-03-17T01:07:47;100351.72;;;5.71;79.94
71149;BME280;59072;42.144;25.200;2023-03-17T01:10:27;100360.19;;;5.66;80.76
71149;BME280;59072;42.144;25.200;2023-03-17T01:12:54;100347.38;;;5.55;81.07
71149;BME280;59072;42.144;25.200;2023-03-17T01:15:23;100371.59;;;5.67;81.54
71149;BME280;59072;42.144;25.200;2023-03-17T01:17:49;100363.50;;;5.83;80.54
71149;BME280;59072;42.144;25.200;2023-03-17T01:20:22;100355.34;;;5.70;79.98
71149;BME280;59072;42.144;25.200;2023-03-17T01:22:48;100366.53;;;5.57;81.25
71149;BME280;59072;42.144;25.200;2023-03-17T01:25:16;100352.28;;;5.43;80.59
71149;BME280;59072;42.144;25.200;2023-03-17T01:27:43;100369.97;;;5.42;81.44
71149;BME280;59072;42.144;25.200;2023-03-17T01:30:31;100373.03;;;5.54;81.39
71149;BME280;59072;42.144;25.200;2023-03-17T01:32:57;100364.94;;;5.71;80.36
71149;BME280;59072;42.144;25.200;2023-03-17T01:35:25;100369.16;;;5.80;79.95
71149;BME280;59072;42.144;25.200;2023-03-17T01:37:51;100375.53;;;5.71;79.05
71149;BME280;59072;42.144;25.200;2023-03-17T01:40:20;100377.06;;;5.65;80.32
71149;BME280;59072;42.144;25.200;2023-03-17T01:42:50;100389.81;;;5.61;80.10
71149;BME280;59072;42.144;25.200;2023-03-17T01:48:19;100373.50;;;5.58;80.18
71149;BME280;59072;42.144;25.200;2023-03-17T01:50:46;100373.03;;;5.54;80.01
71149;BME280;59072;42.144;25.200;2023-03-17T01:53:12;100396.66;;;5.56;80.59
71149;BME280;59072;42.144;25.200;2023-03-17T01:55:40;100390.19;;;5.58;80.21
71149;BME280;59072;42.144;25.200;2023-03-17T01:58:07;100387.63;;;5.50;79.44
71149;BME280;59072;42.144;25.200;2023-03-17T02:00:33;100399.19;;;5.49;81.12
71149;BME280;59072;42.144;25.200;2023-03-17T02:02:59;100387.63;;;5.50;81.00
71149;BME280;59072;42.144;25.200;2023-03-17T02:05:28;100386.84;;;5.41;81.85
71149;BME280;59072;42.144;25.200;2023-03-17T02:07:57;100393.38;;;5.54;80.19
71149;BME280;59072;42.144;25.200;2023-03-17T02:10:24;100382.38;;;5.42;81.46
71149;BME280;59072;42.144;25.200;2023-03-17T02:12:53;100391.38;;;5.33;80.54
71149;BME280;59072;42.144;25.200;2023-03-17T02:15:21;100388.06;;;5.31;81.17
71149;BME280;59072;42.144;25.200;2023-03-17T02:17:47;100391.03;;;5.36;81.49
71149;BME280;59072;42.144;25.200;2023-03-17T02:22:47;100405.78;;;5.30;82.06
71149;BME280;59072;42.144;25.200;2023-03-17T02:25:13;100395.03;;;5.32;81.91
71149;BME280;59072;42.144;25.200;2023-03-17T02:27:45;100402.19;;;5.46;81.36
71149;BME280;59072;42.144;25.200;2023-03-17T02:30:16;100413.81;;;5.37;81.62
71149;BME280;59072;42.144;25.200;2023-03-17T02:32:42;100413.25;;;5.50;80.73
71149;BME280;59072;42.144;25.200;2023-03-17T02:35:08;100401.38;;;5.46;80.80
71149;BME280;59072;42.144;25.200;2023-03-17T02:37:33;100416.06;;;5.48;80.18
71149;BME280;59072;42.144;25.200;2023-03-17T02:39:59;100418.91;;;5.61;79.87
71149;BME280;59072;42.144;25.200;2023-03-17T02:42:26;100419.94;;;5.37;81.52
71149;BME280;59072;42.144;25.200;2023-03-17T02:44:52;100413.25;;;5.50;80.29
71149;BME280;59072;42.144;25.200;2023-03-17T02:47:18;100422.06;;;5.42;81.03
71149;BME280;59072;42.144;25.200;2023-03-17T02:49:44;100415.47;;;5.38;80.77
71149;BME280;59072;42.144;25.200;2023-03-17T02:52:10;100412.72;;;5.54;79.30
71149;BME280;59072;42.144;25.200;2023-03-17T02:54:36;100416.59;;;5.43;80.12
71149;BME280;59072;42.144;25.200;2023-03-17T02:57:02;100425.63;;;5.49;80.38
71149;BME280;59072;42.144;25.200;2023-03-17T02:59:28;100427.88;;;5.37;80.72
71149;BME280;59072;42.144;25.200;2023-03-17T03:01:53;100422.13;;;5.34;80.16
71149;BME280;59072;42.144;25.200;2023-03-17T03:04:20;100426.81;;;5.23;80.66
71149;BME280;59072;42.144;25.200;2023-03-17T03:06:46;100438.97;;;5.33;80.31
71149;BME280;59072;42.144;25.200;2023-03-17T03:09:13;100444.19;;;5.41;80.44
71149;BME280;59072;42.144;25.200;2023-03-17T03:11:39;100444.16;;;5.49;80.03
71149;BME280;59072;42.144;25.200;2023-03-17T03:14:06;100446.78;;;5.49;80.16
71149;BME280;59072;42.144;25.200;2023-03-17T03:16:32;100439.50;;;5.51;80.08
71149;BME280;59072;42.144;25.200;2023-03-17T03:18:58;100463.97;;;5.53;80.19
71149;BME280;59072;42.144;25.200;2023-03-17T03:21:23;100455.31;;;5.59;80.02
71149;BME280;59072;42.144;25.200;2023-03-17T03:23:49;100452.81;;;5.66;79.76
71149;BME280;59072;42.144;25.200;2023-03-17T03:26:14;100435.44;;;5.63;79.08
71149;BME280;59072;42.144;25.200;2023-03-17T03:28:40;100464.84;;;5.69;78.87
71149;BME280;59072;42.144;25.200;2023-03-17T03:31:07;100465.66;;;5.69;79.77
71149;BME280;59072;42.144;25.200;2023-03-17T03:33:33;100466.09;;;5.81;79.50
71149;BME280;59072;42.144;25.200;2023-03-17T03:35:59;100466.47;;;5.70;79.47
71149;BME280;59072;42.144;25.200;2023-03-17T03:38:25;100463.66;;;5.71;78.87
71149;BME280;59072;42.144;25.200;2023-03-17T03:40:51;100473.44;;;5.71;78.89
71149;BME280;59072;42.144;25.200;2023-03-17T03:43:16;100457.19;;;5.74;79.16
71149;BME280;59072;42.144;25.200;2023-03-17T03:45:42;100450.59;;;5.70;78.25
71149;BME280;59072;42.144;25.200;2023-03-17T03:48:08;100460.47;;;5.76;78.56
71149;BME280;59072;42.144;25.200;2023-03-17T03:50:33;100469.19;;;5.61;78.46
71149;BME280;59072;42.144;25.200;2023-03-17T03:52:59;100455.38;;;5.51;78.89
71149;BME280;59072;42.144;25.200;2023-03-17T03:55:24;100475.72;;;5.74;78.36
71149;BME280;59072;42.144;25.200;2023-03-17T03:57:50;100472.75;;;5.54;77.48
71149;BME280;59072;42.144;25.200;2023-03-17T04:00:15;100466.09;;;5.27;78.47
71149;BME280;59072;42.144;25.200;2023-03-17T04:02:42;100478.84;;;5.23;78.50
71149;BME280;59072;42.144;25.200;2023-03-17T04:05:14;100477.75;;;5.17;78.60
71149;BME280;59072;42.144;25.200;2023-03-17T04:07:40;100466.28;;;4.94;79.20
71149;BME280;59072;42.144;25.200;2023-03-17T04:10:08;100481.78;;;5.05;79.45
71149;BME280;59072;42.144;25.200;2023-03-17T04:12:34;100462.38;;;4.81;79.90
71149;BME280;59072;42.144;25.200;2023-03-17T04:14:59;100485.06;;;5.07;78.88
71149;BME280;59072;42.144;25.200;2023-03-17T04:17:25;100489.38;;;5.00;79.71
71149;BME280;59072;42.144;25.200;2023-03-17T04:19:50;100488.72;;;4.98;79.28
71149;BME280;59072;42.144;25.200;2023-03-17T04:22:16;100497.31;;;5.00;79.25
71149;BME280;59072;42.144;25.200;2023-03-17T04:24:42;100494.34;;;5.03;78.69
71149;BME280;59072;42.144;25.200;2023-03-17T04:27:07;100497.22;;;5.16;78.80
71149;BME280;59072;42.144;25.200;2023-03-17T04:29:33;100510.22;;;4.95;79.71
71149;BME280;59072;42.144;25.200;2023-03-17T04:31:59;100500.97;;;4.99;80.02
71149;BME280;59072;42.144;25.200;2023-03-17T04:34:25;100518.00;;;5.28;78.96
71149;BME280;59072;42.144;25.200;2023-03-17T04:36:51;100521.59;;;5.35;78.12
71149;BME280;59072;42.144;25.200;2023-03-17T04:39:17;100514.06;;;5.23;78.71
71149;BME280;59072;42.144;25.200;2023-03-17T04:41:42;100521.34;;;5.21;79.75
71149;BME280;59072;42.144;25.200;2023-03-17T04:44:08;100525.28;;;4.86;81.53
71149;BME280;59072;42.144;25.200;2023-03-17T04:46:34;100509.44;;;4.78;81.48
71149;BME280;59072;42.144;25.200;2023-03-17T04:49:00;100520.50;;;5.21;78.96
71149;BME280;59072;42.144;25.200;2023-03-17T04:51:25;100521.97;;;5.32;78.94
71149;BME280;59072;42.144;25.200;2023-03-17T04:53:51;100530.78;;;5.47;77.60
71149;BME280;59072;42.144;25.200;2023-03-17T04:56:17;100519.03;;;5.18;78.41
71149;BME280;59072;42.144;25.200;2023-03-17T04:58:43;100542.88;;;5.10;80.11
71149;BME280;59072;42.144;25.200;2023-03-17T05:01:09;100546.88;;;4.98;81.30
71149;BME280;59072;42.144;25.200;2023-03-17T05:03:35;100529.81;;;5.09;80.79
71149;BME280;59072;42.144;25.200;2023-03-17T05:06:01;100543.44;;;5.29;80.04
71149;BME280;59072;42.144;25.200;2023-03-17T05:08:27;100547.97;;;5.20;80.70
71149;BME280;59072;42.144;25.200;2023-03-17T05:10:56;100559.63;;;5.34;80.35
71149;BME280;59072;42.144;25.200;2023-03-17T05:13:23;100546.88;;;5.46;79.08
71149;BME280;59072;42.144;25.200;2023-03-17T05:15:50;100549.72;;;5.36;80.53
71149;BME280;59072;42.144;25.200;2023-03-17T05:18:17;100568.47;;;5.49;79.54
71149;BME280;59072;42.144;25.200;2023-03-17T05:20:43;100562.03;;;5.52;79.00
71149;BME280;59072;42.144;25.200;2023-03-17T05:23:09;100571.81;;;5.43;79.78
71149;BME280;59072;42.144;25.200;2023-03-17T05:25:34;100576.84;;;5.30;80.93
71149;BME280;59072;42.144;25.200;2023-03-17T05:28:01;100562.84;;;5.52;79.45
71149;BME280;59072;42.144;25.200;2023-03-17T05:30:26;100581.50;;;5.19;80.94
71149;BME280;59072;42.144;25.200;2023-03-17T05:32:52;100566.31;;;5.21;81.08
71149;BME280;59072;42.144;25.200;2023-03-17T05:35:18;100580.06;;;5.48;80.38
71149;BME280;59072;42.144;25.200;2023-03-17T05:37:44;100573.78;;;5.49;80.07
71149;BME280;59072;42.144;25.200;2023-03-17T05:40:11;100570.13;;;5.50;80.07
71149;BME280;59072;42.144;25.200;2023-03-17T05:42:39;100586.91;;;5.66;80.08
71149;BME280;59072;42.144;25.200;2023-03-17T05:45:05;100577.41;;;5.79;78.43
71149;BME280;59072;42.144;25.200;2023-03-17T05:47:31;100597.69;;;5.95;78.69
71149;BME280;59072;42.144;25.200;2023-03-17T05:50:01;100602.63;;;5.98;78.63
71149;BME280;59072;42.144;25.200;2023-03-17T05:52:27;100611.41;;;5.59;79.95
71149;BME280;59072;42.144;25.200;2023-03-17T05:54:53;100594.84;;;5.34;82.08
71149;BME280;59072;42.144;25.200;2023-03-17T05:57:20;100602.59;;;5.36;82.18
71149;BME280;59072;42.144;25.200;2023-03-17T05:59:46;100595.06;;;5.87;79.54
71149;BME280;59072;42.144;25.200;2023-03-17T06:02:11;100598.91;;;5.84;78.98
71149;BME280;59072;42.144;25.200;2023-03-17T06:04:38;100609.31;;;6.17;78.28
71149;BME280;59072;42.144;25.200;2023-03-17T06:07:04;100601.94;;;6.28;77.64
71149;BME280;59072;42.144;25.200;2023-03-17T06:09:31;100618.41;;;6.15;78.20
71149;BME280;59072;42.144;25.200;2023-03-17T06:11:56;100613.88;;;6.47;77.11
71149;BME280;59072;42.144;25.200;2023-03-17T06:14:22;100614.44;;;6.57;76.44
71149;BME280;59072;42.144;25.200;2023-03-17T06:16:47;100624.97;;;6.65;76.33
71149;BME280;59072;42.144;25.200;2023-03-17T06:19:13;100626.31;;;6.99;75.09
71149;BME280;59072;42.144;25.200;2023-03-17T06:21:38;100610.31;;;7.07;74.15
71149;BME280;59072;42.144;25.200;2023-03-17T06:24:04;100627.88;;;7.23;74.06
71149;BME280;59072;42.144;25.200;2023-03-17T06:26:30;100624.75;;;7.49;71.83
71149;BME280;59072;42.144;25.200;2023-03-17T06:28:55;100632.69;;;7.79;71.10
71149;BME280;59072;42.144;25.200;2023-03-17T06:31:21;100643.44;;;7.92;70.91
71149;BME280;59072;42.144;25.200;2023-03-17T06:33:47;100636.09;;;7.94;71.08
71149;BME280;59072;42.144;25.200;2023-03-17T06:36:13;100650.28;;;8.01;68.94
71149;BME280;59072;42.144;25.200;2023-03-17T06:38:38;100654.63;;;8.24;66.99
71149;BME280;59072;42.144;25.200;2023-03-17T06:41:04;100644.94;;;8.38;66.27
71149;BME280;59072;42.144;25.200;2023-03-17T06:43:29;100648.91;;;8.42;65.78
71149;BME280;59072;42.144;25.200;2023-03-17T06:45:56;100650.91;;;8.61;66.06
71149;BME280;59072;42.144;25.200;2023-03-17T06:48:21;100644.69;;;8.76;62.86
71149;BME280;59072;42.144;25.200;2023-03-17T06:50:47;100654.63;;;8.45;64.44
71149;BME280;59072;42.144;25.200;2023-03-17T06:53:15;100653.25;;;8.50;66.84
71149;BME280;59072;42.144;25.200;2023-03-17T06:55:41;100664.16;;;8.55;64.78
71149;BME280;59072;42.144;25.200;2023-03-17T06:58:06;100662.63;;;8.67;64.00
71149;BME280;59072;42.144;25.200;2023-03-17T07:00:33;100664.88;;;8.70;63.64
71149;BME280;59072;42.144;25.200;2023-03-17T07:02:59;100666.97;;;8.53;63.38
71149;BME280;59072;42.144;25.200;2023-03-17T07:05:24;100664.25;;;8.68;62.67
71149;BME280;59072;42.144;25.200;2023-03-17T07:07:51;100666.16;;;9.02;61.83
71149;BME280;59072;42.144;25.200;2023-03-17T07:10:17;100682.44;;;8.93;59.87
71149;BME280;59072;42.144;25.200;2023-03-17T07:12:43;100676.31;;;8.92;60.59
71149;BME280;59072;42.144;25.200;2023-03-17T07:15:09;100673.66;;;9.20;58.99
71149;BME280;59072;42.144;25.200;2023-03-17T07:17:36;100668.31;;;9.20;59.50
71149;BME280;59072;42.144;25.200;2023-03-17T07:20:02;100664.19;;;9.46;55.84
71149;BME280;59072;42.144;25.200;2023-03-17T07:22:28;100653.38;;;9.54;56.52
71149;BME280;59072;42.144;25.200;2023-03-17T07:24:53;100657.94;;;9.67;54.33
71149;BME280;59072;42.144;25.200;2023-03-17T07:27:19;100672.22;;;10.08;51.38
71149;BME280;59072;42.144;25.200;2023-03-17T07:29:45;100666.19;;;10.40;50.52
71149;BME280;59072;42.144;25.200;2023-03-17T07:32:11;100684.19;;;10.32;48.21
71149;BME280;59072;42.144;25.200;2023-03-17T07:34:37;100665.69;;;10.17;48.88
71149;BME280;59072;42.144;25.200;2023-03-17T07:37:03;100679.59;;;10.05;48.84
71149;BME280;59072;42.144;25.200;2023-03-17T07:39:29;100681.31;;;9.72;47.40
71149;BME280;59072;42.144;25.200;2023-03-17T07:41:55;100672.84;;;10.10;47.72
71149;BME280;59072;42.144;25.200;2023-03-17T07:44:21;100683.38;;;10.31;46.10
71149;BME280;59072;42.144;25.200;2023-03-17T07:46:48;100673.66;;;10.03;47.71
71149;BME280;59072;42.144;25.200;2023-03-17T07:49:14;100680.47;;;10.26;46.23
71149;BME280;59072;42.144;25.200;2023-03-17T07:51:39;100676.44;;;9.82;48.91
71149;BME280;59072;42.144;25.200;2023-03-17T07:54:08;100682.13;;;9.72;48.84
71149;BME280;59072;42.144;25.200;2023-03-17T07:56:35;100674.28;;;10.05;46.56
71149;BME280;59072;42.144;25.200;2023-03-17T07:59:00;100658.06;;;10.07;46.09
71149;BME280;59072;42.144;25.200;2023-03-17T08:01:26;100644.34;;;10.03;47.06
71149;BME280;59072;42.144;25.200;2023-03-17T08:03:53;100653.66;;;10.41;47.15
71149;BME280;59072;42.144;25.200;2023-03-17T08:06:18;100664.56;;;10.59;45.97
71149;BME280;59072;42.144;25.200;2023-03-17T08:08:44;100674.41;;;10.85;44.48
71149;BME280;59072;42.144;25.200;2023-03-17T08:11:10;100661.00;;;11.39;43.66
71149;BME280;59072;42.144;25.200;2023-03-17T08:13:36;100670.00;;;11.51;43.51
71149;BME280;59072;42.144;25.200;2023-03-17T08:16:02;100670.00;;;11.51;43.78
71149;BME280;59072;42.144;25.200;2023-03-17T08:18:27;100668.69;;;11.74;43.77
71149;BME280;59072;42.144;25.200;2023-03-17T08:20:53;100670.50;;;11.93;40.61
71149;BME280;59072;42.144;25.200;2023-03-17T08:23:19;100657.88;;;11.49;40.26
71149;BME280;59072;42.144;25.200;2023-03-17T08:25:45;100652.97;;;11.39;41.90
71149;BME280;59072;42.144;25.200;2023-03-17T08:28:12;100649.50;;;11.38;43.94
71149;BME280;59072;42.144;25.200;2023-03-17T08:30:40;100651.84;;;11.66;44.69
71149;BME280;59072;42.144;25.200;2023-03-17T08:33:06;100667.03;;;11.73;42.30
71149;BME280;59072;42.144;25.200;2023-03-17T08:35:33;100647.44;;;11.34;41.76
71149;BME280;59072;42.144;25.200;2023-03-17T08:37:59;100649.50;;;11.32;42.31
71149;BME280;59072;42.144;25.200;2023-03-17T08:40:24;100656.09;;;11.22;43.15
71149;BME280;59072;42.144;25.200;2023-03-17T08:42:50;100653.03;;;11.84;41.02
71149;BME280;59072;42.144;25.200;2023-03-17T08:45:16;100653.00;;;11.91;39.94
71149;BME280;59072;42.144;25.200;2023-03-17T08:47:42;100633.38;;;11.58;42.19
71149;BME280;59072;42.144;25.200;2023-03-17T08:50:14;100647.16;;;12.07;42.45
71149;BME280;59072;42.144;25.200;2023-03-17T08:52:40;100654.41;;;12.38;39.99
71149;BME280;59072;42.144;25.200;2023-03-17T08:55:06;100641.75;;;12.77;42.94
71149;BME280;59072;42.144;25.200;2023-03-17T08:57:34;100647.53;;;12.74;37.67
71149;BME280;59072;42.144;25.200;2023-03-17T09:00:00;100650.88;;;12.70;38.08
71149;BME280;59072;42.144;25.200;2023-03-17T09:02:26;100636.53;;;12.32;41.74
71149;BME280;59072;42.144;25.200;2023-03-17T09:04:52;100644.56;;;12.32;41.72
71149;BME280;59072;42.144;25.200;2023-03-17T09:07:18;100632.50;;;12.48;41.08
71149;BME280;59072;42.144;25.200;2023-03-17T09:09:44;100633.41;;;12.35;40.28
71149;BME280;59072;42.144;25.200;2023-03-17T09:12:10;100636.09;;;12.35;42.66
71149;BME280;59072;42.144;25.200;2023-03-17T09:14:36;100640.50;;;12.23;39.67
71149;BME280;59072;42.144;25.200;2023-03-17T09:17:01;100636.56;;;11.94;40.62
71149;BME280;59072;42.144;25.200;2023-03-17T09:19:26;100627.34;;;11.83;39.50
71149;BME280;59072;42.144;25.200;2023-03-17T09:21:52;100634.34;;;12.22;39.49
71149;BME280;59072;42.144;25.200;2023-03-17T09:24:18;100640.97;;;12.70;38.12
71149;BME280;59072;42.144;25.200;2023-03-17T09:26:44;100646.94;;;12.72;37.42
71149;BME280;59072;42.144;25.200;2023-03-17T09:29:10;100628.41;;;12.45;37.41
71149;BME280;59072;42.144;25.200;2023-03-17T09:31:37;100640.88;;;12.83;37.39
71149;BME280;59072;42.144;25.200;2023-03-17T09:34:03;100638.44;;;12.50;38.00
71149;BME280;59072;42.144;25.200;2023-03-17T09:36:32;100631.69;;;12.48;39.06
71149;BME280;59072;42.144;25.200;2023-03-17T09:38:59;100628.75;;;12.56;37.02
71149;BME280;59072;42.144;25.200;2023-03-17T09:42:00;100632.09;;;12.95;38.79
71149;BME280;59072;42.144;25.200;2023-03-17T09:44:50;100638.47;;;12.75;36.70
71149;BME280;59072;42.144;25.200;2023-03-17T09:50:38;100637.97;;;12.60;36.47
71149;BME280;59072;42.144;25.200;2023-03-17T09:53:22;100630.69;;;12.42;36.53
71149;BME280;59072;42.144;25.200;2023-03-17T09:55:54;100625.31;;;12.74;36.05
71149;BME280;59072;42.144;25.200;2023-03-17T09:58:29;100641.63;;;12.91;36.63
71149;BME280;59072;42.144;25.200;2023-03-17T10:00:56;100637.47;;;12.95;35.19
71149;BME280;59072;42.144;25.200;2023-03-17T10:03:22;100616.69;;;12.46;36.55
71149;BME280;59072;42.144;25.200;2023-03-17T10:05:49;100635.50;;;12.33;38.98
71149;BME280;59072;42.144;25.200;2023-03-17T10:16:52;100633.25;;;11.98;38.34
71149;BME280;59072;42.144;25.200;2023-03-17T10:19:38;100623.25;;;12.19;39.48
71149;BME280;59072;42.144;25.200;2023-03-17T10:22:16;100618.59;;;12.08;38.00
71149;BME280;59072;42.144;25.200;2023-03-17T10:24:47;100619.09;;;12.55;37.65
71149;BME280;59072;42.144;25.200;2023-03-17T10:27:15;100628.56;;;13.19;37.08
71149;BME280;59072;42.144;25.200;2023-03-17T10:29:42;100615.66;;;13.35;35.49
71149;BME280;59072;42.144;25.200;2023-03-17T10:32:12;100616.00;;;13.75;37.18
71149;BME280;59072;42.144;25.200;2023-03-17T10:34:39;100598.50;;;13.17;35.21
71149;BME280;59072;42.144;25.200;2023-03-17T10:37:18;100624.13;;;13.32;36.18
71149;BME280;59072;42.144;25.200;2023-03-17T10:39:45;100619.94;;;13.17;35.38
71149;BME280;59072;42.144;25.200;2023-03-17T10:42:22;100604.91;;;12.98;34.92
71149;BME280;59072;42.144;25.200;2023-03-17T10:44:55;100624.41;;;13.23;33.93
71149;BME280;59072;42.144;25.200;2023-03-17T10:47:28;100615.63;;;13.16;37.22
71149;BME280;59072;42.144;25.200;2023-03-17T10:49:57;100609.38;;;13.22;34.85
71149;BME280;59072;42.144;25.200;2023-03-17T10:52:29;100605.22;;;13.08;34.87
71149;BME280;59072;42.144;25.200;2023-03-17T10:55:00;100593.91;;;13.24;37.36
71149;BME280;59072;42.144;25.200;2023-03-17T10:57:26;100596.31;;;13.51;34.13
71149;BME280;59072;42.144;25.200;2023-03-17T10:59:54;100599.00;;;13.33;37.73
71149;BME280;59072;42.144;25.200;2023-03-17T11:02:29;100598.97;;;13.14;35.42
71149;BME280;59072;42.144;25.200;2023-03-17T11:05:04;100596.75;;;13.30;37.59
71149;BME280;59072;42.144;25.200;2023-03-17T11:10:01;100599.56;;;13.16;36.53
71149;BME280;59072;42.144;25.200;2023-03-17T11:12:34;100598.66;;;13.04;37.87
71149;BME280;59072;42.144;25.200;2023-03-17T11:15:08;100605.34;;;12.95;37.01
71149;BME280;59072;42.144;25.200;2023-03-17T11:21:07;100602.06;;;12.49;39.95
71149;BME280;59072;42.144;25.200;2023-03-17T11:34:25;100581.28;;;12.19;39.71
71149;BME280;59072;42.144;25.200;2023-03-17T11:37:15;100586.41;;;12.46;39.54
71149;BME280;59072;42.144;25.200;2023-03-17T11:45:28;100597.78;;;12.66;37.42
71149;BME280;59072;42.144;25.200;2023-03-17T11:48:14;100576.31;;;12.73;38.36
71149;BME280;59072;42.144;25.200;2023-03-17T11:50:59;100583.84;;;12.58;37.97
71149;BME280;59072;42.144;25.200;2023-03-17T11:58:49;100588.94;;;12.66;37.75
71149;BME280;59072;42.144;25.200;2023-03-17T12:01:27;100582.22;;;12.57;37.52
71149;BME280;59072;42.144;25.200;2023-03-17T12:06:51;100586.38;;;12.53;37.69
71149;BME280;59072;42.144;25.200;2023-03-17T12:12:05;100579.75;;;12.99;36.82
71149;BME280;59072;42.144;25.200;2023-03-17T12:14:40;100581.31;;;12.88;38.56
71149;BME280;59072;42.144;25.200;2023-03-17T12:17:18;100587.66;;;12.94;37.59
71149;BME280;59072;42.144;25.200;2023-03-17T12:20:39;100588.84;;;12.98;37.51
71149;BME280;59072;42.144;25.200;2023-03-17T12:23:01;100587.13;;;13.03;37.47
71149;BME280;59072;42.144;25.200;2023-03-17T12:25:33;100574.88;;;12.96;37.13
71149;BME280;59072;42.144;25.200;2023-03-17T12:28:21;100573.75;;;13.22;36.80
71149;BME280;59072;42.144;25.200;2023-03-17T12:30:53;100571.22;;;12.46;38.00
71149;BME280;59072;42.144;25.200;2023-03-17T12:33:27;100571.44;;;13.07;37.41
71149;BME280;59072;42.144;25.200;2023-03-17T12:35:56;100569.94;;;12.93;36.56
71149;BME280;59072;42.144;25.200;2023-03-17T12:55:34;100564.81;;;13.77;37.18
71149;BME280;59072;42.144;25.200;2023-03-17T12:58:19;100565.09;;;13.87;35.98
71149;BME280;59072;42.144;25.200;2023-03-17T13:00:48;100567.81;;;13.69;36.09
71149;BME280;59072;42.144;25.200;2023-03-17T13:03:25;100571.28;;;13.57;36.53
71149;BME280;59072;42.144;25.200;2023-03-17T13:05:57;100578.44;;;13.45;36.27
71149;BME280;59072;42.144;25.200;2023-03-17T13:08:28;100582.13;;;13.32;36.91
71149;BME280;59072;42.144;25.200;2023-03-17T13:16:37;100589.97;;;12.65;38.81
71149;BME280;59072;42.144;25.200;2023-03-17T13:21:50;100588.66;;;12.74;38.47
71149;BME280;59072;42.144;25.200;2023-03-17T13:35:15;100592.28;;;12.61;38.35
71149;BME280;59072;42.144;25.200;2023-03-17T13:38:00;100597.25;;;12.33;37.95
71149;BME280;59072;42.144;25.200;2023-03-17T13:40:50;100590.41;;;12.12;38.79
71149;BME280;59072;42.144;25.200;2023-03-17T13:48:53;100578.31;;;12.34;38.37
71149;BME280;59072;42.144;25.200;2023-03-17T13:51:29;100580.69;;;12.68;37.64
71149;BME280;59072;42.144;25.200;2023-03-17T13:54:06;100585.50;;;12.59;37.43
71149;BME280;59072;42.144;25.200;2023-03-17T14:01:29;100563.00;;;12.16;37.91
71149;BME280;59072;42.144;25.200;2023-03-17T14:03:57;100578.00;;;12.17;37.64
71149;BME280;59072;42.144;25.200;2023-03-17T14:06:27;100578.78;;;11.86;38.91
71149;BME280;59072;42.144;25.200;2023-03-17T14:09:00;100567.53;;;11.77;39.64
71149;BME280;59072;42.144;25.200;2023-03-17T14:11:32;100584.38;;;11.91;40.20
71149;BME280;59072;42.144;25.200;2023-03-17T14:17:21;100596.34;;;11.75;40.23
71149;BME280;59072;42.144;25.200;2023-03-17T14:22:43;100577.75;;;11.49;40.62
71149;BME280;59072;42.144;25.200;2023-03-17T14:25:19;100581.16;;;11.62;40.83
71149;BME280;59072;42.144;25.200;2023-03-17T14:27:48;100583.22;;;11.60;41.73
71149;BME280;59072;42.144;25.200;2023-03-17T14:30:17;100586.22;;;11.39;41.57
71149;BME280;59072;42.144;25.200;2023-03-17T14:32:50;100600.66;;;11.11;40.91
71149;BME280;59072;42.144;25.200;2023-03-17T14:35:16;100589.59;;;11.08;41.27